Time;durP1;ratioP1;P1;durP2;ratioP2;P2;SDS_P1;SDS_P2;PMS_P1;PMS_P2;Temp;Humidity;BMP_temperature;BMP_pressure;BME280_temperature;BME280_humidity;BME280_pressure;Samples;Min_cycle;Max_cycle;Signal;HPM_P1;HPM_P2
2023/01/08 00:02:08;;;;;;;3.65;1.48;;;;;;;9.73;81.05;98796.44;4990486;28;20318;-87
2023/01/08 00:04:33;;;;;;;3.03;1.20;;;;;;;9.67;81.76;98803.81;4990358;28;20347;-87
2023/01/08 00:06:59;;;;;;;3.07;1.17;;;;;;;9.71;81.95;98797.78;4989948;28;20237;-87
2023/01/08 00:09:24;;;;;;;4.28;1.38;;;;;;;9.71;82.05;98786.91;4989849;28;20323;-87
2023/01/08 00:11:49;;;;;;;2.38;1.08;;;;;;;9.69;82.37;98788.03;4989514;28;20103;-88
2023/01/08 00:14:14;;;;;;;2.83;0.97;;;;;;;9.67;82.47;98794.84;4990347;28;20375;-87
2023/01/08 00:16:40;;;;;;;3.15;1.40;;;;;;;9.69;82.82;98785.31;4989005;28;20291;-87
2023/01/08 00:19:05;;;;;;;2.50;1.17;;;;;;;9.69;82.52;98779.84;4990409;28;20041;-87
2023/01/08 00:21:30;;;;;;;5.00;1.57;;;;;;;9.72;82.59;98781.22;4990060;28;20729;-88
2023/01/08 00:23:55;;;;;;;2.72;1.23;;;;;;;9.62;83.04;98784.00;4990173;28;20267;-88
2023/01/08 00:26:21;;;;;;;4.53;2.27;;;;;;;9.60;82.99;98781.53;4988580;28;20383;-87
2023/01/08 00:28:46;;;;;;;2.57;1.23;;;;;;;9.64;83.13;98782.59;4989488;28;20274;-87
2023/01/08 00:31:12;;;;;;;3.65;1.55;;;;;;;9.63;83.23;98783.72;4989790;28;20280;-87
2023/01/08 00:33:38;;;;;;;3.28;1.30;;;;;;;9.64;82.86;98766.25;4990433;28;20049;-87
2023/01/08 00:36:15;;;;;;;3.42;1.50;;;;;;;9.64;83.02;98754.59;4989373;28;20137;-88
2023/01/08 00:38:42;;;;;;;2.50;1.15;;;;;;;9.61;83.57;98758.69;4990552;28;20048;-87
2023/01/08 00:41:07;;;;;;;3.53;1.70;;;;;;;9.67;83.18;98743.13;4989679;28;20108;-87
2023/01/08 00:43:33;;;;;;;2.83;1.00;;;;;;;9.61;82.98;98761.41;4989900;28;20649;-86
2023/01/08 00:45:58;;;;;;;3.42;1.50;;;;;;;9.56;83.58;98751.34;4989427;28;20282;-87
2023/01/08 00:48:23;;;;;;;1.57;0.83;;;;;;;9.63;83.35;98745.59;4990114;28;20367;-88
2023/01/08 00:50:49;;;;;;;2.45;1.30;;;;;;;9.57;83.26;98754.91;4976864;28;20359;-87
2023/01/08 00:53:15;;;;;;;3.55;1.30;;;;;;;9.52;83.31;98757.66;4994290;28;20026;-87
2023/01/08 00:55:40;;;;;;;3.45;1.40;;;;;;;9.58;83.48;98756.50;4993158;28;20045;-88
2023/01/08 00:58:06;;;;;;;2.78;1.23;;;;;;;9.58;83.14;98768.22;4993218;28;20040;-87
2023/01/08 01:00:31;;;;;;;3.47;1.25;;;;;;;9.54;83.16;98756.28;4976440;28;20361;-87
2023/01/08 01:02:56;;;;;;;3.28;1.02;;;;;;;9.48;83.28;98757.41;4993707;28;20483;-87
2023/01/08 01:05:21;;;;;;;1.73;0.80;;;;;;;9.51;83.36;98750.59;4993156;28;20136;-87
2023/01/08 01:07:47;;;;;;;3.37;1.40;;;;;;;9.60;83.25;98738.00;4992998;28;20276;-87
2023/01/08 01:10:16;;;;;;;2.72;1.55;;;;;;;9.61;82.83;98723.31;4992775;28;20362;-86
2023/01/08 01:12:41;;;;;;;3.10;1.67;;;;;;;9.58;82.59;98726.56;4993202;28;20033;-87
2023/01/08 01:15:09;;;;;;;4.63;0.88;;;;;;;9.62;82.89;98729.56;4992889;28;20460;-87
2023/01/08 01:17:37;;;;;;;3.17;1.33;;;;;;;9.59;82.62;98736.38;4992877;28;20022;-86
2023/01/08 01:20:03;;;;;;;3.70;1.42;;;;;;;9.55;82.82;98722.53;4992450;28;20533;-87
2023/01/08 01:22:28;;;;;;;2.13;1.00;;;;;;;9.55;83.10;98724.44;4993458;28;20057;-87
2023/01/08 01:24:53;;;;;;;3.08;1.25;;;;;;;9.53;83.03;98742.94;4993283;28;20039;-87
2023/01/08 01:27:18;;;;;;;2.17;0.85;;;;;;;9.53;83.32;98743.78;4992481;28;20632;-87
2023/01/08 01:29:44;;;;;;;4.50;1.20;;;;;;;9.46;83.19;98733.19;4992310;28;20093;-87
2023/01/08 01:32:09;;;;;;;3.57;1.37;;;;;;;9.51;83.11;98736.97;4992984;28;20291;-87
2023/01/08 01:34:34;;;;;;;2.83;1.20;;;;;;;9.55;82.70;98721.72;4991847;28;20733;-87
2023/01/08 01:36:59;;;;;;;3.90;1.17;;;;;;;9.58;83.16;98732.03;4991869;28;20303;-87
2023/01/08 01:39:25;;;;;;;1.97;0.60;;;;;;;9.54;82.72;98725.53;4975070;28;20054;-87
2023/01/08 01:41:52;;;;;;;2.33;0.80;;;;;;;9.59;82.68;98730.94;4993212;28;20272;-87
2023/01/08 01:44:40;;;;;;;2.05;0.93;;;;;;;9.58;82.90;98724.69;4992150;28;20065;-87
2023/01/08 01:47:31;;;;;;;3.78;1.38;;;;;;;9.57;82.60;98733.94;4991204;28;20038;-87
2023/01/08 01:50:09;;;;;;;4.53;1.00;;;;;;;9.55;82.74;98732.59;4991946;28;20032;-89
2023/01/08 01:52:44;;;;;;;2.78;1.13;;;;;;;9.65;82.91;98737.97;4991944;28;20179;-87
2023/01/08 01:55:11;;;;;;;2.08;0.70;;;;;;;9.59;83.11;98730.94;4974059;28;20514;-88
2023/01/08 01:57:37;;;;;;;4.70;1.45;;;;;;;9.69;82.56;98730.03;4991545;28;20490;-87
2023/01/08 02:00:06;;;;;;;4.47;1.55;;;;;;;9.64;82.59;98722.72;4992446;28;20023;-88
2023/01/08 02:02:32;;;;;;;3.83;1.55;;;;;;;9.63;82.50;98734.72;4974962;28;20022;-88
2023/01/08 02:04:58;;;;;;;3.90;1.65;;;;;;;9.61;83.03;98728.75;4992338;28;20036;-87
2023/01/08 02:07:42;;;;;;;6.95;1.45;;;;;;;9.61;82.94;98739.63;4990356;28;20049;-87
2023/01/08 02:10:35;;;;;;;3.83;1.27;;;;;;;9.64;82.99;98738.25;4991051;28;20037;-87
2023/01/08 02:13:12;;;;;;;4.57;1.40;;;;;;;9.68;82.87;98726.50;4992299;28;20026;-88
2023/01/08 02:15:50;;;;;;;4.10;1.85;;;;;;;9.61;83.27;98723.31;4991236;28;20030;-87
2023/01/08 02:18:24;;;;;;;3.53;1.88;;;;;;;9.63;83.07;98721.13;4991689;28;20043;-87
2023/01/08 02:20:56;;;;;;;2.25;1.00;;;;;;;9.64;83.61;98714.56;4991714;28;20039;-88
2023/01/08 02:23:40;;;;;;;3.35;1.42;;;;;;;9.64;83.85;98709.13;4992166;28;20054;-87
2023/01/08 02:26:09;;;;;;;4.93;1.13;;;;;;;9.65;83.79;98713.47;4991433;28;20060;-87
2023/01/08 02:28:53;;;;;;;3.72;1.10;;;;;;;9.66;84.79;98698.75;4991653;28;20034;-88
2023/01/08 02:31:22;;;;;;;2.60;1.50;;;;;;;9.68;85.05;98712.09;4992033;28;20085;-87
2023/01/08 02:33:47;;;;;;;4.25;1.73;;;;;;;9.71;84.97;98719.69;4992073;28;20475;-87
2023/01/08 02:36:48;;;;;;;3.37;1.27;;;;;;;9.63;85.55;98710.22;4991057;28;20072;-87
2023/01/08 02:39:20;;;;;;;3.67;1.80;;;;;;;9.54;85.97;98704.56;4990928;28;20825;-87
2023/01/08 02:42:09;;;;;;;3.55;1.25;;;;;;;9.59;86.46;98695.56;4991725;28;20034;-87
2023/01/08 02:45:12;;;;;;;3.78;1.45;;;;;;;9.64;86.84;98678.38;4991881;28;20038;-88
2023/01/08 02:47:44;;;;;;;3.55;1.13;;;;;;;9.66;86.75;98689.81;4990644;28;20556;-86
2023/01/08 02:50:27;;;;;;;1.70;0.73;;;;;;;9.64;86.69;98681.13;4990913;28;20455;-86
2023/01/08 02:53:18;;;;;;;5.47;1.30;;;;;;;9.50;87.23;98672.78;4991435;28;20054;-88
2023/01/08 02:55:50;;;;;;;3.83;1.60;;;;;;;9.58;87.40;98661.28;4990647;28;20290;-87
2023/01/08 02:58:15;;;;;;;2.67;1.13;;;;;;;9.45;88.22;98666.28;4991242;28;20026;-87
2023/01/08 03:00:43;;;;;;;3.45;1.42;;;;;;;9.49;88.13;98663.00;4989875;28;20112;-87
2023/01/08 03:03:13;;;;;;;4.20;2.35;;;;;;;9.53;87.70;98666.75;4991597;28;20022;-87
2023/01/08 03:05:40;;;;;;;3.95;1.40;;;;;;;9.53;87.65;98650.44;4990073;28;20050;-86
2023/01/08 03:08:07;;;;;;;3.80;2.22;;;;;;;9.49;88.21;98643.94;4991443;28;20072;-88
2023/01/08 03:10:36;;;;;;;3.95;1.70;;;;;;;9.48;87.92;98639.63;4990021;28;20042;-88
2023/01/08 03:13:07;;;;;;;3.40;1.63;;;;;;;9.44;87.99;98632.00;4980293;28;20035;-87
2023/01/08 03:15:44;;;;;;;2.35;1.38;;;;;;;9.40;88.53;98630.94;4990374;28;20061;-88
2023/01/08 03:18:13;;;;;;;3.95;1.85;;;;;;;9.41;88.62;98621.72;4991124;28;20031;-88
2023/01/08 03:20:38;;;;;;;4.03;1.38;;;;;;;9.39;88.92;98623.09;4990738;28;20038;-89
2023/01/08 03:23:08;;;;;;;3.58;1.50;;;;;;;9.37;88.51;98620.66;4990480;28;20049;-89
2023/01/08 03:25:38;;;;;;;2.85;1.40;;;;;;;9.30;88.77;98620.97;4989135;28;20038;-88
2023/01/08 03:28:09;;;;;;;4.53;2.03;;;;;;;9.34;89.06;98615.75;4990664;28;20116;-87
2023/01/08 03:30:38;;;;;;;4.25;1.30;;;;;;;9.34;89.07;98618.50;4990146;28;20034;-88
2023/01/08 03:33:06;;;;;;;3.85;1.63;;;;;;;9.35;89.12;98628.28;4990420;28;20030;-88
2023/01/08 03:35:33;;;;;;;6.07;1.60;;;;;;;9.38;88.97;98622.25;4990319;28;20626;-87
2023/01/08 03:38:13;;;;;;;6.20;2.40;;;;;;;9.36;89.31;98621.72;4973472;28;20133;-87
2023/01/08 03:40:44;;;;;;;3.88;1.80;;;;;;;9.39;88.90;98612.19;4990310;28;20046;-87
2023/01/08 03:43:09;;;;;;;4.53;1.90;;;;;;;9.39;88.98;98607.56;4990871;28;20379;-87
2023/01/08 03:45:37;;;;;;;5.55;1.67;;;;;;;9.39;89.13;98613.03;4990149;28;20065;-87
2023/01/08 03:48:04;;;;;;;6.07;1.48;;;;;;;9.38;89.00;98622.25;4990282;28;20103;-88
2023/01/08 03:50:30;;;;;;;2.63;1.27;;;;;;;9.39;88.95;98613.03;4991069;28;20121;-87
2023/01/08 03:52:56;;;;;;;5.40;1.73;;;;;;;9.38;89.11;98605.94;4990925;28;20040;-86
2023/01/08 03:55:21;;;;;;;2.90;1.60;;;;;;;9.38;89.32;98605.94;4990676;28;20379;-87
2023/01/08 03:57:46;;;;;;;5.38;2.20;;;;;;;9.44;88.93;98607.53;4989714;28;20709;-87
2023/01/08 04:00:12;;;;;;;2.93;1.20;;;;;;;9.46;88.91;98608.06;4990461;28;20030;-87
2023/01/08 04:02:37;;;;;;;3.08;0.98;;;;;;;9.41;89.31;98604.56;4990921;28;20890;-87
2023/01/08 04:05:03;;;;;;;3.78;1.27;;;;;;;9.42;88.96;98596.13;4990458;28;20035;-88
2023/01/08 04:07:28;;;;;;;2.58;1.33;;;;;;;9.46;88.92;98605.31;4989288;28;20049;-87
2023/01/08 04:09:53;;;;;;;4.22;1.60;;;;;;;9.44;88.89;98609.44;4990778;28;20030;-87
2023/01/08 04:12:19;;;;;;;3.67;1.57;;;;;;;9.43;89.29;98614.06;4990283;28;20134;-88
2023/01/08 04:14:44;;;;;;;6.17;1.47;;;;;;;9.38;89.45;98611.38;4990576;28;20597;-88
2023/01/08 04:17:12;;;;;;;3.13;1.00;;;;;;;9.41;89.86;98613.53;4989353;28;20334;-87
2023/01/08 04:19:38;;;;;;;3.10;1.20;;;;;;;9.43;89.46;98619.50;4989701;28;20633;-87
2023/01/08 04:22:03;;;;;;;4.40;1.60;;;;;;;9.39;89.57;98612.19;4989272;28;20054;-87
2023/01/08 04:24:28;;;;;;;3.60;1.20;;;;;;;9.39;89.66;98612.19;4991780;28;20065;-88
2023/01/08 04:26:53;;;;;;;4.47;2.20;;;;;;;9.37;89.82;98608.94;4993225;28;20034;-88
2023/01/08 04:29:19;;;;;;;3.90;2.33;;;;;;;9.35;89.85;98606.53;4993308;28;20691;-88
2023/01/08 04:31:44;;;;;;;2.53;1.37;;;;;;;9.33;89.76;98603.28;4993498;28;20268;-87
2023/01/08 04:34:09;;;;;;;3.50;1.40;;;;;;;9.39;89.71;98602.13;4993041;28;20260;-87
2023/01/08 04:36:34;;;;;;;5.70;1.47;;;;;;;9.36;89.77;98591.81;4992809;28;20288;-87
2023/01/08 04:39:00;;;;;;;3.58;1.20;;;;;;;9.39;90.04;98585.81;4993232;28;20368;-87
2023/01/08 04:41:25;;;;;;;4.20;1.10;;;;;;;9.36;90.26;98575.50;4975921;28;20038;-87
2023/01/08 04:43:50;;;;;;;3.70;1.83;;;;;;;9.31;90.64;98572.81;4993072;28;20617;-87
2023/01/08 04:46:15;;;;;;;2.83;1.03;;;;;;;9.32;90.04;98577.16;4992818;28;20471;-88
2023/01/08 04:48:41;;;;;;;3.80;1.30;;;;;;;9.37;90.24;98582.56;4993161;28;20271;-87
2023/01/08 04:51:06;;;;;;;4.47;1.67;;;;;;;9.34;89.85;98586.66;4993510;28;20256;-88
2023/01/08 04:53:34;;;;;;;3.10;1.50;;;;;;;9.34;90.23;98583.13;4993488;28;20737;-87
2023/01/08 04:56:04;;;;;;;5.72;1.42;;;;;;;9.35;90.57;98587.47;4992248;28;20045;-87
2023/01/08 04:58:29;;;;;;;3.13;1.10;;;;;;;9.39;90.01;98583.09;4982284;28;20380;-87
2023/01/08 05:00:54;;;;;;;4.25;1.35;;;;;;;9.39;90.49;98593.97;4976016;28;20075;-87
2023/01/08 05:03:20;;;;;;;2.00;0.80;;;;;;;9.33;90.38;98597.84;4992671;28;20359;-87
2023/01/08 05:05:45;;;;;;;4.03;1.03;;;;;;;9.34;90.93;98583.94;4991316;28;20268;-88
2023/01/08 05:08:10;;;;;;;2.47;0.90;;;;;;;9.25;91.17;98579.41;4991663;28;20844;-85
2023/01/08 05:10:35;;;;;;;3.27;1.07;;;;;;;9.31;91.40;98572.81;4973792;28;20277;-87
2023/01/08 05:13:01;;;;;;;3.43;1.93;;;;;;;9.24;91.58;98554.09;4992549;28;20803;-87
2023/01/08 05:15:27;;;;;;;4.32;1.05;;;;;;;9.31;91.44;98557.31;4992009;28;20260;-87
2023/01/08 05:18:00;;;;;;;4.57;1.05;;;;;;;9.23;91.35;98558.72;4992435;28;20146;-87
2023/01/08 05:20:25;;;;;;;3.05;1.23;;;;;;;9.21;90.96;98563.66;4992368;28;20038;-86
2023/01/08 05:22:51;;;;;;;2.78;1.20;;;;;;;9.21;91.21;98555.47;4992287;28;20033;-87
2023/01/08 05:25:16;;;;;;;2.05;0.88;;;;;;;9.21;90.81;98560.94;4991799;28;20030;-87
2023/01/08 05:27:41;;;;;;;3.97;1.02;;;;;;;9.20;91.19;98570.19;4973650;28;20165;-87
2023/01/08 05:30:07;;;;;;;3.47;1.17;;;;;;;9.21;91.31;98569.09;4991893;28;20349;-87
2023/01/08 05:32:32;;;;;;;4.43;1.40;;;;;;;9.21;90.79;98558.19;4974702;28;20330;-87
2023/01/08 05:34:57;;;;;;;2.97;0.87;;;;;;;9.21;91.11;98552.75;4991752;28;20042;-87
2023/01/08 05:37:22;;;;;;;1.80;1.03;;;;;;;9.23;91.05;98544.34;4990771;28;20267;-87
2023/01/08 05:39:48;;;;;;;2.77;0.90;;;;;;;9.32;90.82;98547.25;4974283;28;20288;-87
2023/01/08 05:42:13;;;;;;;5.80;2.83;;;;;;;9.27;90.44;98555.47;4992032;28;20278;-88
2023/01/08 05:44:38;;;;;;;2.53;1.20;;;;;;;9.28;90.40;98540.75;4991258;28;20268;-87
2023/01/08 05:47:03;;;;;;;3.67;1.07;;;;;;;9.28;90.51;98546.19;4991332;28;20260;-87
2023/01/08 05:49:29;;;;;;;2.38;0.75;;;;;;;9.21;90.70;98541.88;4991647;28;20797;-89
2023/01/08 05:51:54;;;;;;;1.70;0.63;;;;;;;9.29;90.53;98534.22;4991805;28;20125;-88
2023/01/08 05:54:19;;;;;;;4.30;1.07;;;;;;;9.29;90.15;98547.81;4991346;28;20593;-87
2023/01/08 05:56:44;;;;;;;1.87;0.80;;;;;;;9.33;90.19;98543.44;4990960;28;20290;-87
2023/01/08 05:59:13;;;;;;;2.43;0.90;;;;;;;9.34;90.17;98555.94;4991100;28;20255;-87
2023/01/08 06:01:38;;;;;;;3.55;1.05;;;;;;;9.37;89.76;98549.94;4991892;28;20785;-87
2023/01/08 06:04:04;;;;;;;2.33;0.85;;;;;;;9.35;89.74;98552.13;4991891;28;20113;-87
2023/01/08 06:06:29;;;;;;;4.50;1.35;;;;;;;9.35;89.94;98552.13;4991215;28;20476;-88
2023/01/08 06:08:54;;;;;;;2.22;0.60;;;;;;;9.37;89.62;98552.66;4991338;28;20439;-87
2023/01/08 06:11:19;;;;;;;2.87;1.13;;;;;;;9.34;89.33;98556.75;4990433;28;20065;-86
2023/01/08 06:13:45;;;;;;;2.80;1.43;;;;;;;9.38;89.53;98551.53;4991220;28;20729;-88
2023/01/08 06:16:11;;;;;;;2.00;0.82;;;;;;;9.41;89.23;98550.97;4990881;28;20256;-87
2023/01/08 06:18:36;;;;;;;2.65;1.27;;;;;;;9.36;88.90;98553.72;4991286;28;20042;-88
2023/01/08 06:21:03;;;;;;;1.70;0.60;;;;;;;9.36;88.92;98556.44;4990664;28;20034;-88
2023/01/08 06:23:28;;;;;;;1.85;0.80;;;;;;;9.41;88.71;98547.44;4991015;28;20263;-88
2023/01/08 06:25:55;;;;;;;6.22;0.80;;;;;;;9.41;88.55;98545.53;4990450;28;20357;-87
2023/01/08 06:28:21;;;;;;;2.17;0.73;;;;;;;9.40;88.52;98541.19;4990470;28;20092;-87
2023/01/08 06:30:47;;;;;;;2.60;1.17;;;;;;;9.33;88.72;98543.44;4991302;28;20023;-86
2023/01/08 06:33:12;;;;;;;1.55;0.50;;;;;;;9.29;88.27;98542.38;4973683;28;20430;-88
2023/01/08 06:35:37;;;;;;;1.83;0.60;;;;;;;9.37;88.23;98549.94;4990021;28;20033;-88
2023/01/08 06:38:02;;;;;;;2.70;1.27;;;;;;;9.35;88.21;98552.13;4991225;28;20030;-87
2023/01/08 06:40:28;;;;;;;2.77;0.87;;;;;;;9.39;87.81;98552.34;4990851;28;20276;-87
2023/01/08 06:42:53;;;;;;;1.63;0.50;;;;;;;9.39;87.48;98553.19;4990995;28;20318;-88
2023/01/08 06:45:19;;;;;;;4.32;0.73;;;;;;;9.37;87.90;98555.38;4990402;28;20248;-86
2023/01/08 06:47:44;;;;;;;4.20;1.00;;;;;;;9.28;87.83;98551.63;4990503;28;20075;-88
2023/01/08 06:50:10;;;;;;;2.47;0.80;;;;;;;9.30;87.85;98550.25;4990814;28;20367;-89
2023/01/08 06:52:35;;;;;;;2.40;0.50;;;;;;;9.34;87.64;98550.47;4990592;28;20042;-87
2023/01/08 06:55:00;;;;;;;2.80;0.70;;;;;;;9.37;87.50;98543.66;4990532;28;20022;-87
2023/01/08 06:57:26;;;;;;;2.43;1.03;;;;;;;9.34;87.43;98545.03;4989242;28;20806;-87
2023/01/08 06:59:51;;;;;;;2.73;1.13;;;;;;;9.36;87.45;98542.84;4990385;28;20283;-86
2023/01/08 07:02:17;;;;;;;2.47;0.70;;;;;;;9.43;86.88;98547.97;4990185;28;20445;-87
2023/01/08 07:04:43;;;;;;;1.92;1.08;;;;;;;9.30;86.99;98550.25;4990448;28;20633;-87
2023/01/08 07:07:12;;;;;;;2.28;0.60;;;;;;;9.27;86.86;98550.84;4972670;28;20030;-88
2023/01/08 07:09:38;;;;;;;3.20;0.73;;;;;;;9.31;86.66;98560.06;4973034;28;20030;-87
2023/01/08 07:12:03;;;;;;;1.67;0.52;;;;;;;9.33;86.60;98554.31;4990326;28;20235;-89
2023/01/08 07:14:28;;;;;;;1.42;0.38;;;;;;;9.38;86.48;98559.69;4990040;28;20030;-88
2023/01/08 07:16:54;;;;;;;3.60;1.33;;;;;;;9.33;86.18;98568.72;4989932;28;20037;-88
2023/01/08 07:19:19;;;;;;;2.47;0.60;;;;;;;9.39;86.40;98571.41;4989613;28;20800;-88
2023/01/08 07:21:44;;;;;;;1.43;0.40;;;;;;;9.37;86.63;98577.13;4989979;28;20306;-87
2023/01/08 07:24:09;;;;;;;1.40;0.50;;;;;;;9.37;87.07;98593.44;4989968;28;20264;-87
2023/01/08 07:26:35;;;;;;;1.70;0.60;;;;;;;9.27;87.77;98609.84;4989023;28;20092;-87
2023/01/08 07:29:01;;;;;;;2.15;0.43;;;;;;;9.16;88.99;98609.94;4989415;28;20629;-87
2023/01/08 07:31:26;;;;;;;1.65;0.57;;;;;;;9.04;88.99;98625.78;4989452;28;20034;-88
2023/01/08 07:33:51;;;;;;;1.83;0.37;;;;;;;9.01;88.15;98623.66;4990165;28;20066;-87
2023/01/08 07:36:21;;;;;;;0.80;0.30;;;;;;;9.01;87.76;98623.66;4989265;28;20259;-87
2023/01/08 07:38:48;;;;;;;1.73;0.40;;;;;;;8.98;87.51;98620.41;4989360;28;20034;-87
2023/01/08 07:41:13;;;;;;;1.38;0.32;;;;;;;9.09;87.55;98621.13;4989424;28;20050;-87
2023/01/08 07:43:38;;;;;;;2.17;0.57;;;;;;;9.17;86.77;98599.88;4989816;28;20022;-87
2023/01/08 07:46:04;;;;;;;0.85;0.40;;;;;;;9.06;86.36;98599.13;4989518;28;20264;-87
2023/01/08 07:48:29;;;;;;;3.05;0.55;;;;;;;8.99;86.57;98611.13;4989331;28;20668;-86
2023/01/08 07:51:02;;;;;;;0.65;0.20;;;;;;;8.92;85.68;98602.50;4989155;28;20511;-87
2023/01/08 07:53:28;;;;;;;1.20;0.30;;;;;;;8.73;85.32;98613.19;4989121;28;20026;-87
2023/01/08 07:55:59;;;;;;;1.35;0.43;;;;;;;8.75;85.66;98622.69;4988649;28;20040;-87
2023/01/08 07:58:24;;;;;;;1.00;0.28;;;;;;;8.74;85.34;98621.09;4989270;28;20154;-88
2023/01/08 08:00:49;;;;;;;3.53;0.27;;;;;;;8.70;84.98;98614.59;4989514;28;20601;-88
2023/01/08 08:03:15;;;;;;;11.67;0.40;;;;;;;8.82;84.60;98610.72;4989510;28;20247;-86
2023/01/08 08:05:40;;;;;;;0.68;0.30;;;;;;;8.83;84.24;98610.41;4989013;28;20306;-88
2023/01/08 08:08:10;;;;;;;0.63;0.20;;;;;;;8.86;84.39;98606.34;4989524;28;20105;-87
2023/01/08 08:10:36;;;;;;;0.50;0.30;;;;;;;8.73;83.50;98614.00;4988698;28;20279;-87
2023/01/08 08:13:02;;;;;;;1.70;0.40;;;;;;;8.61;82.64;98605.38;4989725;28;20510;-88
2023/01/08 08:15:27;;;;;;;7.47;1.55;;;;;;;8.67;81.98;98600.72;4989070;28;20165;-87
2023/01/08 08:17:52;;;;;;;1.25;0.30;;;;;;;8.83;81.40;98601.44;4989580;28;20030;-87
2023/01/08 08:20:17;;;;;;;2.10;0.30;;;;;;;8.83;81.51;98601.44;4989468;28;20529;-87
2023/01/08 08:22:43;;;;;;;2.97;1.07;;;;;;;8.79;81.21;98603.13;4972049;28;20760;-86
2023/01/08 08:25:08;;;;;;;2.00;0.40;;;;;;;8.74;80.82;98603.97;4989355;28;20264;-88
2023/01/08 08:27:34;;;;;;;1.55;0.30;;;;;;;8.78;80.15;98599.59;4988036;28;20416;-87
2023/01/08 08:29:59;;;;;;;2.00;0.80;;;;;;;8.84;80.46;98603.91;4972102;28;20062;-87
2023/01/08 08:32:24;;;;;;;1.53;0.37;;;;;;;8.79;79.66;98595.75;4989275;28;20049;-88
2023/01/08 08:34:49;;;;;;;0.90;0.40;;;;;;;8.88;79.14;98582.41;4988893;28;20259;-87
2023/01/08 08:37:15;;;;;;;2.80;1.17;;;;;;;8.87;78.52;98586.19;4989181;28;20288;-87
2023/01/08 08:39:40;;;;;;;8.00;1.42;;;;;;;8.81;78.62;98588.16;4988644;28;20318;-87
2023/01/08 08:42:06;;;;;;;3.20;0.68;;;;;;;8.82;77.57;98581.63;4989324;28;20057;-88
2023/01/08 08:44:31;;;;;;;10.80;2.60;;;;;;;8.80;76.66;98596.59;4989448;28;20022;-86
2023/01/08 08:46:56;;;;;;;3.33;0.65;;;;;;;8.83;76.98;98587.84;4988846;28;20326;-86
2023/01/08 08:49:21;;;;;;;1.60;0.70;;;;;;;8.77;76.29;98591.72;4988661;28;20186;-86
2023/01/08 08:51:47;;;;;;;4.07;0.60;;;;;;;8.72;75.53;98596.09;4989109;28;20304;-87
2023/01/08 08:54:12;;;;;;;4.70;0.67;;;;;;;8.68;75.73;98595.03;4988486;28;20789;-87
2023/01/08 08:56:37;;;;;;;13.40;1.70;;;;;;;8.69;75.45;98580.34;4988217;28;20302;-86
2023/01/08 08:59:02;;;;;;;4.17;1.07;;;;;;;8.72;76.22;98579.78;4989005;28;20058;-85
2023/01/08 09:01:28;;;;;;;6.00;1.20;;;;;;;8.75;75.64;98579.22;4988886;28;20272;-87
2023/01/08 09:03:54;;;;;;;5.72;1.65;;;;;;;8.84;75.56;98575.91;4988639;28;20262;-84
2023/01/08 09:06:19;;;;;;;8.80;1.30;;;;;;;8.90;75.51;98569.34;4988716;28;20030;-88
2023/01/08 09:08:44;;;;;;;9.20;2.78;;;;;;;8.87;75.36;98570.72;4988661;28;20405;-86
2023/01/08 09:11:10;;;;;;;3.50;0.80;;;;;;;8.85;75.33;98582.94;4989559;28;20174;-87
2023/01/08 09:13:36;;;;;;;3.92;0.90;;;;;;;9.03;75.63;98577.94;4992080;28;20367;-89
2023/01/08 09:16:01;;;;;;;7.88;0.90;;;;;;;8.87;75.44;98586.19;4991684;28;20305;-88
2023/01/08 09:18:27;;;;;;;7.95;0.80;;;;;;;8.92;75.31;98593.50;4991028;28;20030;-86
2023/01/08 09:20:52;;;;;;;3.38;1.15;;;;;;;8.95;75.37;98591.03;4992242;28;20030;-87
2023/01/08 09:23:17;;;;;;;10.37;1.20;;;;;;;8.90;75.20;98580.22;4989244;28;20077;-89
2023/01/08 09:25:43;;;;;;;8.35;1.33;;;;;;;8.95;75.31;98585.59;4990597;28;20665;-85
2023/01/08 09:28:11;;;;;;;4.65;1.63;;;;;;;9.06;75.39;98577.38;4991677;28;20030;-87
2023/01/08 09:30:37;;;;;;;4.40;1.20;;;;;;;9.01;75.37;98574.72;4990185;28;20031;-89
2023/01/08 09:33:04;;;;;;;6.63;1.30;;;;;;;9.13;75.06;98580.59;4991840;28;20038;-87
2023/01/08 09:35:31;;;;;;;6.10;0.98;;;;;;;9.26;75.55;98575.56;4990944;28;20037;-86
2023/01/08 09:37:56;;;;;;;8.57;1.75;;;;;;;9.32;74.98;98571.72;4974595;28;20034;-86
2023/01/08 09:40:25;;;;;;;6.75;1.95;;;;;;;9.21;75.22;98579.97;4991333;28;20278;-88
2023/01/08 09:42:56;;;;;;;8.23;1.77;;;;;;;9.22;75.11;98564.47;4991008;28;20027;-88
2023/01/08 09:45:27;;;;;;;6.50;1.30;;;;;;;9.16;75.56;98571.84;4989763;28;20053;-87
2023/01/08 09:47:53;;;;;;;10.73;1.63;;;;;;;9.18;75.47;98569.66;4990672;28;20042;-87
2023/01/08 09:50:19;;;;;;;4.22;0.90;;;;;;;9.23;75.70;98572.31;4973875;28;20042;-86
2023/01/08 09:52:45;;;;;;;9.45;1.60;;;;;;;9.25;75.86;98573.97;4991841;28;20536;-88
2023/01/08 09:55:15;;;;;;;5.38;1.00;;;;;;;9.16;76.06;98571.03;4991437;28;20030;-87
2023/01/08 09:57:41;;;;;;;12.55;2.08;;;;;;;9.17;76.00;98562.59;4990599;28;20046;-87
2023/01/08 10:00:21;;;;;;;3.08;1.05;;;;;;;9.31;76.24;98564.66;4992282;28;20109;-87
2023/01/08 10:02:46;;;;;;;5.10;1.90;;;;;;;9.25;76.22;98555.75;4991586;28;20336;-87
2023/01/08 10:05:14;;;;;;;5.55;2.10;;;;;;;9.28;76.58;98562.50;4991329;28;20117;-86
2023/01/08 10:07:40;;;;;;;5.55;1.80;;;;;;;9.36;76.92;98553.72;4990330;28;20042;-87
2023/01/08 10:10:17;;;;;;;3.58;1.08;;;;;;;9.37;76.72;98555.38;4991070;28;20034;-86
2023/01/08 10:12:43;;;;;;;7.43;1.13;;;;;;;9.39;76.76;98557.78;4990953;28;20038;-87
2023/01/08 10:15:14;;;;;;;3.05;1.98;;;;;;;9.29;76.71;98548.66;4991178;28;20031;-87
2023/01/08 10:18:01;;;;;;;7.70;1.00;;;;;;;9.32;76.61;98541.78;4990466;28;20467;-86
2023/01/08 10:20:29;;;;;;;4.72;1.25;;;;;;;9.32;76.73;98537.19;4989868;28;20042;-85
2023/01/08 10:22:55;;;;;;;5.75;1.25;;;;;;;9.42;76.91;98536.25;4990811;28;20115;-85
2023/01/08 10:25:23;;;;;;;3.28;1.65;;;;;;;9.54;76.61;98535.09;4991172;28;20034;-84
2023/01/08 10:27:51;;;;;;;4.20;0.98;;;;;;;9.64;76.08;98532.22;4990667;28;20037;-86
2023/01/08 10:30:41;;;;;;;13.88;0.85;;;;;;;9.54;76.10;98532.34;4990889;28;20026;-83
2023/01/08 10:33:16;;;;;;;2.65;1.08;;;;;;;9.74;76.28;98531.31;4990103;28;20042;-86
2023/01/08 10:35:42;;;;;;;4.43;1.65;;;;;;;9.80;76.32;98518.47;4989049;28;20065;-81
2023/01/08 10:38:25;;;;;;;16.88;6.18;;;;;;;9.83;76.45;98512.44;4989548;28;20513;-81
2023/01/08 10:40:51;;;;;;;17.77;8.10;;;;;;;9.92;76.15;98512.59;4990627;28;20200;-84
2023/01/08 10:43:24;;;;;;;3.03;0.98;;;;;;;9.83;76.38;98512.44;4990602;28;20124;-83
2023/01/08 10:46:06;;;;;;;6.32;1.35;;;;;;;9.85;76.72;98499.34;4972449;28;20041;-87
2023/01/08 10:48:37;;;;;;;4.88;1.58;;;;;;;9.85;76.63;98502.06;4989306;28;20115;-85
2023/01/08 10:51:12;;;;;;;3.28;1.02;;;;;;;9.74;76.94;98493.22;4993255;28;20045;-85
2023/01/08 10:53:39;;;;;;;0.98;0.40;;;;;;;9.74;76.69;98484.25;4989998;28;20037;-84
2023/01/08 10:56:05;;;;;;;4.53;1.00;;;;;;;9.87;77.42;98485.44;4988687;28;20077;-85
2023/01/08 10:58:40;;;;;;;11.52;1.00;;;;;;;9.96;76.98;98482.88;4990119;28;20113;-84
2023/01/08 11:01:14;;;;;;;2.17;0.90;;;;;;;9.91;77.28;98479.13;4990469;28;20073;-85
2023/01/08 11:03:40;;;;;;;1.80;0.40;;;;;;;9.81;77.32;98471.91;4989751;28;20519;-85
2023/01/08 11:06:26;;;;;;;2.33;0.68;;;;;;;9.91;77.43;98465.50;4989709;28;20042;-86
2023/01/08 11:08:55;;;;;;;1.15;0.40;;;;;;;9.95;77.51;98460.28;4989272;28;20038;-84
2023/01/08 11:11:22;;;;;;;3.97;0.65;;;;;;;10.00;77.56;98456.69;4989833;28;20439;-85
2023/01/08 11:13:55;;;;;;;4.85;0.80;;;;;;;10.11;77.64;98444.53;4989850;28;20034;-86
2023/01/08 11:16:22;;;;;;;5.22;0.85;;;;;;;10.09;77.02;98440.50;4989227;28;20026;-85
2023/01/08 11:18:50;;;;;;;4.03;0.50;;;;;;;10.15;77.41;98442.84;4989809;28;20034;-85
2023/01/08 11:21:24;;;;;;;1.17;0.40;;;;;;;10.11;76.93;98433.66;4988920;28;20030;-85
2023/01/08 11:24:15;;;;;;;5.47;1.02;;;;;;;10.18;76.94;98438.75;4971779;28;20030;-85
2023/01/08 11:26:45;;;;;;;2.90;0.70;;;;;;;10.14;77.40;98430.34;4988910;28;20318;-84
2023/01/08 11:29:37;;;;;;;2.33;0.63;;;;;;;10.12;77.21;98429.84;4989848;28;20041;-84
2023/01/08 11:32:14;;;;;;;2.63;0.65;;;;;;;9.92;77.15;98418.13;4989524;28;20040;-84
2023/01/08 11:35:02;;;;;;;3.85;0.50;;;;;;;9.98;76.95;98412.59;4988391;28;20038;-85
2023/01/08 11:37:32;;;;;;;1.52;0.85;;;;;;;10.07;77.38;98402.66;4988293;28;20040;-84
2023/01/08 11:39:57;;;;;;;2.63;0.77;;;;;;;10.13;76.92;98401.50;4988477;28;20061;-84
2023/01/08 11:42:34;;;;;;;2.10;0.60;;;;;;;10.06;76.94;98392.88;4989138;28;20038;-84
2023/01/08 11:45:15;;;;;;;1.20;0.63;;;;;;;10.04;77.07;98376.84;4989143;28;20030;-85
2023/01/08 11:47:55;;;;;;;7.70;1.52;;;;;;;10.11;76.04;98390.06;4989122;28;20483;-85